createdAt,value
2023-03-18T00:03:48.783Z,100637.69
2023-03-18T00:08:52.572Z,100639.72
2023-03-18T00:13:55.634Z,100631.38
2023-03-18T00:18:58.489Z,100636.69
2023-03-18T00:24:01.800Z,100628.16
2023-03-18T00:29:04.896Z,100623.19
2023-03-18T00:34:08.374Z,100624.13
2023-03-18T00:39:13.320Z,100628.50
2023-03-18T00:44:16.344Z,100611.25
2023-03-18T00:49:19.925Z,100620.06
2023-03-18T00:54:24.783Z,100620.28
2023-03-18T00:59:27.877Z,100610.03
2023-03-18T01:04:31.302Z,100605.81
2023-03-18T01:09:34.468Z,100604.22
2023-03-18T01:14:39.671Z,100591.19
2023-03-18T01:19:43.725Z,100595.34
2023-03-18T01:24:47.197Z,100589.19
2023-03-18T01:29:50.221Z,100583.06
2023-03-18T01:34:53.129Z,100575.41
2023-03-18T01:39:56.135Z,100576.31
2023-03-18T01:45:24.763Z,100567.06
2023-03-18T01:50:37.968Z,100567.06
2023-03-18T01:55:42.412Z,100568.75
2023-03-18T02:00:54.683Z,100565.16
2023-03-18T02:05:57.884Z,100556.50
2023-03-18T02:11:02.382Z,100553.88
2023-03-18T02:16:13.817Z,100558.03
2023-03-18T02:21:33.403Z,100554.41
2023-03-18T02:26:59.044Z,100550.09
2023-03-18T02:32:06.202Z,100549.41
2023-03-18T02:37:10.050Z,100551.38
2023-03-18T02:42:14.569Z,100559.50
2023-03-18T02:47:22.874Z,100548.63
2023-03-18T02:52:26.789Z,100557.91
2023-03-18T02:57:29.757Z,100567.06
2023-03-18T03:02:32.909Z,100575.41
2023-03-18T03:07:35.934Z,100561.13
2023-03-18T03:12:39.867Z,100560.59
2023-03-18T03:17:42.795Z,100560.72
2023-03-18T03:22:46.290Z,100573.63
2023-03-18T03:27:49.879Z,100576.22
2023-03-18T03:32:52.895Z,100574.59
2023-03-18T03:37:55.797Z,100569.69
2023-03-18T03:42:59.006Z,100582.16
2023-03-18T03:48:02.332Z,100590.38
2023-03-18T03:53:06.816Z,100591.59
2023-03-18T03:58:10.639Z,100585.81
2023-03-18T04:03:13.677Z,100599.06
2023-03-18T04:08:17.996Z,100590.63
2023-03-18T04:13:20.755Z,100600.03
2023-03-18T04:18:23.686Z,100598.34
2023-03-18T04:23:26.908Z,100608.94
2023-03-18T04:28:30.222Z,100608.13
2023-03-18T04:33:33.732Z,100603.72
2023-03-18T04:38:37.322Z,100611.53
2023-03-18T04:43:40.054Z,100610.91
2023-03-18T04:48:43.632Z,100616.31
2023-03-18T04:53:46.611Z,100624.31
2023-03-18T04:58:49.899Z,100623.56
2023-03-18T05:03:52.807Z,100635.72
2023-03-18T05:08:57.113Z,100633.88
2023-03-18T05:14:00.170Z,100626.34
2023-03-18T05:19:03.597Z,100632.63
2023-03-18T05:24:06.918Z,100643.09
2023-03-18T05:29:09.944Z,100649.09
2023-03-18T05:34:13.609Z,100650.41
2023-03-18T05:39:16.922Z,100652.53
2023-03-18T05:44:19.993Z,100651.19
2023-03-18T05:49:23.714Z,100648.88
2023-03-18T05:54:27.080Z,100656.41
2023-03-18T05:59:31.616Z,100649.00
2023-03-18T06:04:34.606Z,100651.09
2023-03-18T06:09:37.718Z,100658.28
2023-03-18T06:14:40.606Z,100659.41
2023-03-18T06:19:45.079Z,100657.03
2023-03-18T06:24:48.530Z,100660.78
2023-03-18T06:29:51.749Z,100660.59
2023-03-18T06:34:54.668Z,100654.78
2023-03-18T06:39:58.661Z,100671.00
2023-03-18T06:45:01.824Z,100668.53
2023-03-18T06:50:05.900Z,100688.13
2023-03-18T06:55:09.505Z,100691.84
2023-03-18T07:00:13.293Z,100685.47
2023-03-18T07:05:17.240Z,100691.03
2023-03-18T07:10:33.016Z,100680.69
2023-03-18T07:15:36.363Z,100679.53
2023-03-18T07:20:40.267Z,100672.50
2023-03-18T07:25:44.785Z,100681.53
2023-03-18T07:30:48.158Z,100678.03
2023-03-18T07:35:51.643Z,100677.44
2023-03-18T07:40:54.580Z,100675.16
2023-03-18T07:45:58.710Z,100674.03
2023-03-18T07:51:02.766Z,100679.78
2023-03-18T07:56:07.328Z,100674.84
2023-03-18T08:01:10.414Z,100682.13
2023-03-18T08:06:15.525Z,100689.13
2023-03-18T08:11:18.738Z,100681.00
2023-03-18T08:16:21.773Z,100660.06
2023-03-18T08:21:24.803Z,100658.97
2023-03-18T08:26:27.955Z,100669.16
2023-03-18T08:31:31.172Z,100658.75
2023-03-18T08:36:35.221Z,100657.91
2023-03-18T08:41:38.808Z,100640.41
2023-03-18T08:46:41.912Z,100640.28
2023-03-18T08:51:45.116Z,100636.84
2023-03-18T08:56:48.060Z,100639.09
2023-03-18T09:01:51.604Z,100631.84
2023-03-18T09:06:54.683Z,100628.84
2023-03-18T09:11:57.686Z,100626.16
2023-03-18T09:17:01.158Z,100621.00
2023-03-18T09:22:04.623Z,100605.25
2023-03-18T09:27:07.650Z,100606.22
2023-03-18T09:32:11.272Z,100601.78
2023-03-18T09:37:14.989Z,100598.59
2023-03-18T09:43:02.514Z,100602.00
2023-03-18T09:48:43.481Z,100595.19
2023-03-18T09:53:59.587Z,100590.78
2023-03-18T09:59:28.726Z,100588.28
2023-03-18T10:04:49.433Z,100576.84
2023-03-18T10:10:22.627Z,100579.09
2023-03-18T10:15:41.581Z,100569.38
2023-03-18T10:21:24.774Z,100565.69
2023-03-18T10:26:58.073Z,100571.56
2023-03-18T10:32:21.614Z,100559.94
2023-03-18T10:37:39.384Z,100558.31
2023-03-18T10:42:44.107Z,100556.53
2023-03-18T10:48:11.006Z,100548.59
2023-03-18T10:53:55.689Z,100539.75
2023-03-18T10:58:59.139Z,100530.94
2023-03-18T11:04:06.977Z,100524.19
2023-03-18T11:09:15.927Z,100519.91
2023-03-18T11:14:28.908Z,100515.31
2023-03-18T11:19:47.856Z,100505.31
2023-03-18T11:25:11.668Z,100491.81
2023-03-18T11:30:41.063Z,100498.56
2023-03-18T11:35:52.007Z,100493.16
2023-03-18T11:41:17.622Z,100486.94
2023-03-18T11:46:27.633Z,100474.19
2023-03-18T11:51:55.234Z,100477.41
2023-03-18T11:57:45.289Z,100467.84
2023-03-18T12:03:17.052Z,100466.91
2023-03-18T12:08:57.072Z,100452.94
2023-03-18T12:14:23.486Z,100442.47
2023-03-18T12:20:10.176Z,100440.28
2023-03-18T12:25:52.695Z,100438.47
2023-03-18T12:31:22.970Z,100430.16
2023-03-18T12:36:56.250Z,100430.03
2023-03-18T12:42:09.228Z,100428.31
2023-03-18T12:47:42.201Z,100431.84
2023-03-18T12:53:22.935Z,100442.53
2023-03-18T12:58:37.902Z,100434.28
2023-03-18T13:03:44.785Z,100432.66
2023-03-18T13:09:13.094Z,100424.28
2023-03-18T13:14:41.198Z,100435.16
2023-03-18T13:19:45.150Z,100440.00
2023-03-18T13:25:13.814Z,100429.59
2023-03-18T13:30:48.674Z,100435.44
2023-03-18T13:36:22.827Z,100433.19
2023-03-18T13:41:58.079Z,100421.50
2023-03-18T13:47:09.123Z,100425.44
2023-03-18T13:52:43.947Z,100427.31
2023-03-18T13:58:06.610Z,100420.75
2023-03-18T14:03:30.116Z,100414.31
2023-03-18T14:08:39.305Z,100415.44
2023-03-18T14:14:06.087Z,100408.09
2023-03-18T14:19:28.723Z,100397.44
2023-03-18T14:24:32.168Z,100381.59
2023-03-18T14:29:42.356Z,100385.56
2023-03-18T14:34:59.011Z,100373.56
2023-03-18T14:40:16.286Z,100374.41
2023-03-18T14:45:33.604Z,100373.72
2023-03-18T14:50:47.566Z,100374.72
2023-03-18T14:55:57.249Z,100369.72
2023-03-18T15:01:12.297Z,100356.88
2023-03-18T15:06:21.972Z,100357.44
2023-03-18T15:11:25.576Z,100356.19
2023-03-18T15:16:33.176Z,100362.41
2023-03-18T15:21:37.601Z,100363.44
2023-03-18T15:26:42.508Z,100355.06
2023-03-18T15:31:45.779Z,100358.81
2023-03-18T15:37:01.013Z,100365.31
2023-03-18T15:42:15.555Z,100357.22
2023-03-18T15:47:32.224Z,100362.19
2023-03-18T15:52:41.896Z,100376.72
2023-03-18T15:57:45.102Z,100387.66
2023-03-18T16:02:48.809Z,100388.72
2023-03-18T16:07:53.071Z,100391.06
2023-03-18T16:13:01.941Z,100393.03
2023-03-18T16:18:04.956Z,100398.44
2023-03-18T16:23:08.145Z,100393.34
2023-03-18T16:28:22.568Z,100399.19
2023-03-18T16:33:26.224Z,100410.38
2023-03-18T16:38:31.110Z,100403.75
2023-03-18T16:43:33.995Z,100408.72
2023-03-18T16:48:36.862Z,100413.66
2023-03-18T16:53:40.345Z,100413.13
2023-03-18T16:58:44.777Z,100410.72
2023-03-18T17:03:48.163Z,100420.75
2023-03-18T17:08:52.552Z,100414.81
2023-03-18T17:13:56.453Z,100417.06
2023-03-18T17:18:59.596Z,100421.72
2023-03-18T17:24:03.705Z,100426.00
2023-03-18T17:29:08.079Z,100428.81
2023-03-18T17:34:14.060Z,100433.75
2023-03-18T17:39:17.709Z,100436.44
2023-03-18T17:44:30.185Z,100433.75
2023-03-18T17:49:33.176Z,100438.91
2023-03-18T17:54:36.607Z,100444.53
2023-03-18T17:59:39.582Z,100454.63
2023-03-18T18:04:43.463Z,100463.41
2023-03-18T18:09:47.344Z,100452.84
2023-03-18T18:14:50.743Z,100453.69
2023-03-18T18:19:54.732Z,100455.31
2023-03-18T18:24:58.112Z,100469.91
2023-03-18T18:30:00.938Z,100460.81
2023-03-18T18:35:04.556Z,100470.22
2023-03-18T18:40:10.708Z,100472.63
2023-03-18T18:45:19.164Z,100473.00
2023-03-18T18:50:32.279Z,100480.94
2023-03-18T18:55:36.077Z,100474.09
2023-03-18T19:00:39.153Z,100481.09
2023-03-18T19:05:43.931Z,100479.38
2023-03-18T19:10:47.011Z,100476.81
2023-03-18T19:15:55.987Z,100476.84
2023-03-18T19:20:58.955Z,100474.97
2023-03-18T19:26:06.378Z,100478.50
2023-03-18T19:31:13.852Z,100480.91
2023-03-18T19:36:27.205Z,100485.25
2023-03-18T19:41:30.723Z,100490.56
2023-03-18T19:46:39.231Z,100493.09
2023-03-18T19:51:42.641Z,100500.28
2023-03-18T19:56:46.241Z,100502.19
2023-03-18T20:01:50.557Z,100492.38
2023-03-18T20:06:54.857Z,100498.13
2023-03-18T20:12:04.526Z,100508.16
2023-03-18T20:17:42.345Z,100508.28
2023-03-18T20:22:59.441Z,100507.78
2023-03-18T20:28:07.524Z,100497.19
2023-03-18T20:33:10.615Z,100508.69
2023-03-18T20:38:39.265Z,100513.97
2023-03-18T20:43:42.751Z,100509.78
2023-03-18T20:48:46.158Z,100509.03
2023-03-18T20:53:50.349Z,100515.38
2023-03-18T20:58:53.732Z,100524.31
2023-03-18T21:04:01.752Z,100522.63
2023-03-18T21:09:05.277Z,100519.97
2023-03-18T21:14:14.729Z,100527.69
2023-03-18T21:19:17.673Z,100524.94
2023-03-18T21:24:27.675Z,100524.66
2023-03-18T21:29:30.708Z,100516.63
2023-03-18T21:34:33.823Z,100511.59
2023-03-18T21:39:36.889Z,100507.75
2023-03-18T21:44:39.956Z,100517.84
2023-03-18T21:49:44.134Z,100514.84
2023-03-18T21:54:47.422Z,100519.72
2023-03-18T21:59:52.557Z,100517.41
2023-03-18T22:04:59.257Z,100518.47
2023-03-18T22:10:02.406Z,100507.34
2023-03-18T22:15:36.778Z,100524.25
2023-03-18T22:20:41.095Z,100519.97
2023-03-18T22:25:47.337Z,100524.50
2023-03-18T22:30:52.840Z,100520.28
2023-03-18T22:35:56.498Z,100522.81
2023-03-18T22:40:59.463Z,100529.63
2023-03-18T22:46:06.613Z,100529.94
2023-03-18T22:51:27.771Z,100527.25
2023-03-18T22:56:32.419Z,100537.22
2023-03-18T23:01:37.419Z,100539.34
2023-03-18T23:06:41.738Z,100547.66
2023-03-18T23:11:46.761Z,100540.41
2023-03-18T23:16:49.726Z,100542.81
2023-03-18T23:21:52.648Z,100544.53
2023-03-18T23:26:55.604Z,100548.63
2023-03-18T23:31:58.853Z,100564.13
2023-03-18T23:37:02.701Z,100566.13
2023-03-18T23:42:06.248Z,100566.44
2023-03-18T23:47:11.158Z,100567.56
2023-03-18T23:52:15.823Z,100577.56
2023-03-18T23:57:18.791Z,100553.44
